createdAt,value
2023-04-26T00:00:09.509Z,534.00
2023-04-26T00:01:09.272Z,532.00
2023-04-26T00:02:09.271Z,531.00
2023-04-26T00:03:09.367Z,532.00
2023-04-26T00:04:09.546Z,535.00
2023-04-26T00:05:09.653Z,537.00
2023-04-26T00:06:09.305Z,539.00
2023-04-26T00:07:09.316Z,539.00
2023-04-26T00:08:09.319Z,538.00
2023-04-26T00:09:09.349Z,538.00
2023-04-26T00:10:09.339Z,538.00
2023-04-26T00:11:09.353Z,540.00
2023-04-26T00:12:09.354Z,539.00
2023-04-26T00:13:09.390Z,539.00
2023-04-26T00:14:09.461Z,539.00
2023-04-26T00:15:09.450Z,539.00
2023-04-26T00:16:09.515Z,539.00
2023-04-26T00:17:09.508Z,539.00
2023-04-26T00:18:09.597Z,540.00
2023-04-26T00:19:09.594Z,538.00
2023-04-26T00:20:09.620Z,536.00
2023-04-26T00:21:09.694Z,537.00
2023-04-26T00:22:09.707Z,540.00
2023-04-26T00:23:09.732Z,540.00
2023-04-26T00:24:09.758Z,539.00
2023-04-26T00:25:09.826Z,540.00
2023-04-26T00:26:09.831Z,539.00
2023-04-26T00:27:09.861Z,538.00
2023-04-26T00:29:28.708Z,523.00
2023-04-26T00:30:28.677Z,532.00
2023-04-26T00:31:28.563Z,531.00
2023-04-26T00:32:28.567Z,528.00
2023-04-26T00:33:28.796Z,529.00
2023-04-26T00:34:28.530Z,530.00
2023-04-26T00:35:28.506Z,529.00
2023-04-26T00:36:28.477Z,530.00
2023-04-26T00:37:29.264Z,531.00
2023-04-26T00:38:28.777Z,528.00
2023-04-26T00:39:28.516Z,529.00
2023-04-26T00:40:29.268Z,529.00
2023-04-26T00:41:28.578Z,527.00
2023-04-26T00:42:28.410Z,529.00
2023-04-26T00:43:28.360Z,526.00
2023-04-26T00:44:28.434Z,527.00
2023-04-26T00:45:28.439Z,529.00
2023-04-26T00:46:28.313Z,530.00
2023-04-26T00:47:28.284Z,532.00
2023-04-26T00:48:28.259Z,532.00
2023-04-26T00:49:28.252Z,531.00
2023-04-26T00:50:28.225Z,530.00
2023-04-26T00:51:28.225Z,532.00
2023-04-26T00:52:28.185Z,530.00
2023-04-26T00:53:28.191Z,529.00
2023-04-26T00:54:28.157Z,528.00
2023-04-26T00:55:28.157Z,525.00
2023-04-26T00:56:28.129Z,527.00
2023-04-26T00:57:28.094Z,528.00
2023-04-26T00:58:28.085Z,529.00
2023-04-26T00:59:28.183Z,530.00
2023-04-26T01:00:28.092Z,530.00
2023-04-26T01:01:28.096Z,531.00
2023-04-26T01:02:28.127Z,530.00
2023-04-26T01:03:28.116Z,529.00
2023-04-26T01:04:28.058Z,531.00
2023-04-26T01:05:27.984Z,530.00
2023-04-26T01:06:27.971Z,528.00
2023-04-26T01:07:27.973Z,530.00
2023-04-26T01:08:27.937Z,530.00
2023-04-26T01:09:27.913Z,529.00
2023-04-26T01:10:27.885Z,529.00
2023-04-26T01:11:27.879Z,531.00
2023-04-26T01:12:27.845Z,533.00
2023-04-26T01:13:27.825Z,532.00
2023-04-26T01:14:27.825Z,529.00
2023-04-26T01:15:27.796Z,528.00
2023-04-26T01:16:27.778Z,528.00
2023-04-26T01:17:27.828Z,529.00
2023-04-26T01:18:27.728Z,527.00
2023-04-26T01:19:27.711Z,527.00
2023-04-26T01:20:27.679Z,526.00
2023-04-26T01:21:27.655Z,527.00
2023-04-26T01:22:27.626Z,527.00
2023-04-26T01:23:27.625Z,525.00
2023-04-26T01:24:27.638Z,522.00
2023-04-26T01:25:27.657Z,522.00
2023-04-26T01:26:27.675Z,524.00
2023-04-26T01:27:27.707Z,526.00
2023-04-26T01:28:27.747Z,529.00
2023-04-26T01:29:27.745Z,528.00
2023-04-26T01:30:27.740Z,528.00
2023-04-26T01:31:27.792Z,524.00
2023-04-26T01:32:27.839Z,526.00
2023-04-26T01:33:27.753Z,526.00
2023-04-26T01:34:27.754Z,528.00
2023-04-26T01:35:27.730Z,529.00
2023-04-26T01:36:27.708Z,526.00
2023-04-26T01:37:27.656Z,524.00
2023-04-26T01:38:27.654Z,527.00
2023-04-26T01:39:27.622Z,527.00
2023-04-26T01:40:27.582Z,528.00
2023-04-26T01:41:27.594Z,527.00
2023-04-26T01:42:27.556Z,526.00
2023-04-26T01:43:27.516Z,527.00
2023-04-26T01:44:27.492Z,526.00
2023-04-26T01:45:27.475Z,525.00
2023-04-26T01:46:27.521Z,525.00
2023-04-26T01:47:27.484Z,524.00
2023-04-26T01:48:27.500Z,524.00
2023-04-26T01:49:27.543Z,524.00
2023-04-26T01:50:27.527Z,525.00
2023-04-26T01:51:27.529Z,523.00
2023-04-26T01:52:27.564Z,526.00
2023-04-26T01:53:27.573Z,529.00
2023-04-26T01:54:27.590Z,528.00
2023-04-26T01:55:27.603Z,527.00
2023-04-26T01:56:27.611Z,529.00
2023-04-26T01:57:27.645Z,527.00
2023-04-26T01:58:27.644Z,527.00
2023-04-26T01:59:27.680Z,526.00
2023-04-26T02:00:27.680Z,526.00
2023-04-26T02:01:27.715Z,526.00
2023-04-26T02:02:27.741Z,525.00
2023-04-26T02:03:27.728Z,526.00
2023-04-26T02:04:27.800Z,528.00
2023-04-26T02:05:27.861Z,530.00
2023-04-26T02:06:27.766Z,528.00
2023-04-26T02:07:27.805Z,528.00
2023-04-26T02:08:27.800Z,526.00
2023-04-26T02:09:27.831Z,525.00
2023-04-26T02:10:27.835Z,524.00
2023-04-26T02:11:27.878Z,523.00
2023-04-26T02:12:27.888Z,525.00
2023-04-26T02:13:27.904Z,524.00
2023-04-26T02:14:27.930Z,523.00
2023-04-26T02:15:27.940Z,525.00
2023-04-26T02:16:27.999Z,526.00
2023-04-26T02:17:27.957Z,526.00
2023-04-26T02:18:27.924Z,526.00
2023-04-26T02:19:27.887Z,526.00
2023-04-26T02:20:27.873Z,524.00
2023-04-26T02:21:27.853Z,523.00
2023-04-26T02:22:27.875Z,524.00
2023-04-26T02:23:27.825Z,523.00
2023-04-26T02:24:27.829Z,524.00
2023-04-26T02:25:27.793Z,525.00
2023-04-26T02:26:27.766Z,526.00
2023-04-26T02:27:27.776Z,526.00
2023-04-26T02:28:27.728Z,529.00
2023-04-26T02:29:43.171Z,528.00
2023-04-26T02:30:28.722Z,526.00
2023-04-26T02:31:27.744Z,526.00
2023-04-26T02:32:27.744Z,526.00
2023-04-26T02:33:27.706Z,527.00
2023-04-26T02:34:27.637Z,528.00
2023-04-26T02:35:28.297Z,527.00
2023-04-26T02:36:27.656Z,530.00
2023-04-26T02:37:27.666Z,531.00
2023-04-26T02:38:27.551Z,532.00
2023-04-26T02:39:27.535Z,531.00
2023-04-26T02:40:27.518Z,529.00
2023-04-26T02:41:27.505Z,528.00
2023-04-26T02:42:27.477Z,531.00
2023-04-26T02:43:27.453Z,531.00
2023-04-26T02:44:27.450Z,530.00
2023-04-26T02:45:27.459Z,528.00
2023-04-26T02:46:27.498Z,528.00
2023-04-26T02:47:27.521Z,527.00
2023-04-26T02:48:27.530Z,526.00
2023-04-26T02:49:27.531Z,523.00
2023-04-26T02:50:27.546Z,523.00
2023-04-26T02:51:27.564Z,525.00
2023-04-26T02:52:27.587Z,523.00
2023-04-26T02:53:27.598Z,523.00
2023-04-26T02:54:27.618Z,524.00
2023-04-26T02:55:27.645Z,524.00
2023-04-26T02:56:27.653Z,524.00
2023-04-26T02:57:27.671Z,524.00
2023-04-26T02:58:27.693Z,526.00
2023-04-26T02:59:27.726Z,525.00
2023-04-26T03:00:27.743Z,527.00
2023-04-26T03:01:27.774Z,528.00
2023-04-26T03:02:27.894Z,527.00
2023-04-26T03:03:28.017Z,529.00
2023-04-26T03:04:27.804Z,529.00
2023-04-26T03:05:27.830Z,526.00
2023-04-26T03:06:27.867Z,527.00
2023-04-26T03:07:27.860Z,528.00
2023-04-26T03:08:27.899Z,528.00
2023-04-26T03:09:27.973Z,528.00
2023-04-26T03:10:27.975Z,526.00
2023-04-26T03:11:27.957Z,527.00
2023-04-26T03:12:28.037Z,525.00
2023-04-26T03:13:28.044Z,525.00
2023-04-26T03:14:28.039Z,523.00
2023-04-26T03:15:28.065Z,523.00
2023-04-26T03:16:28.124Z,524.00
2023-04-26T03:17:28.140Z,525.00
2023-04-26T03:18:28.127Z,524.00
2023-04-26T03:19:28.152Z,523.00
2023-04-26T03:20:28.167Z,522.00
2023-04-26T03:21:28.188Z,520.00
2023-04-26T03:22:28.200Z,524.00
2023-04-26T03:23:28.232Z,526.00
2023-04-26T03:24:28.235Z,526.00
2023-04-26T03:25:28.410Z,527.00
2023-04-26T03:26:28.283Z,527.00
2023-04-26T03:27:28.313Z,529.00
2023-04-26T03:28:28.326Z,529.00
2023-04-26T03:29:28.358Z,530.00
2023-04-26T03:30:28.389Z,531.00
2023-04-26T03:31:28.453Z,529.00
2023-04-26T03:32:28.411Z,530.00
2023-04-26T03:33:28.448Z,529.00
2023-04-26T03:34:28.467Z,526.00
2023-04-26T03:35:28.496Z,527.00
2023-04-26T03:36:28.521Z,530.00
2023-04-26T03:37:28.599Z,528.00
2023-04-26T03:38:28.619Z,526.00
2023-04-26T03:39:28.694Z,528.00
2023-04-26T03:40:28.707Z,528.00
2023-04-26T03:41:28.609Z,525.00
2023-04-26T03:42:28.654Z,525.00
2023-04-26T03:43:29.324Z,524.00
2023-04-26T03:44:30.995Z,523.00
2023-04-26T03:45:28.868Z,522.00
2023-04-26T03:46:28.906Z,521.00
2023-04-26T03:47:28.904Z,521.00
2023-04-26T03:48:28.865Z,521.00
2023-04-26T03:49:28.888Z,518.00
2023-04-26T03:50:28.988Z,520.00
2023-04-26T03:51:28.964Z,517.00
2023-04-26T03:52:28.993Z,519.00
2023-04-26T03:53:29.002Z,518.00
2023-04-26T03:54:28.966Z,518.00
2023-04-26T03:55:29.009Z,519.00
2023-04-26T03:56:29.108Z,516.00
2023-04-26T03:57:29.078Z,519.00
2023-04-26T03:58:29.042Z,523.00
2023-04-26T03:59:29.070Z,527.00
2023-04-26T04:00:29.085Z,526.00
2023-04-26T04:01:29.118Z,526.00
2023-04-26T04:02:29.281Z,527.00
2023-04-26T04:03:29.348Z,527.00
2023-04-26T04:04:29.356Z,527.00
2023-04-26T04:05:29.249Z,527.00
2023-04-26T04:06:29.230Z,528.00
2023-04-26T04:07:29.389Z,530.00
2023-04-26T04:08:29.260Z,531.00
2023-04-26T04:09:29.298Z,532.00
2023-04-26T04:10:29.333Z,529.00
2023-04-26T04:11:29.345Z,529.00
2023-04-26T04:12:29.390Z,531.00
2023-04-26T04:13:29.438Z,531.00
2023-04-26T04:14:29.435Z,530.00
2023-04-26T04:15:29.488Z,529.00
2023-04-26T04:16:29.613Z,530.00
2023-04-26T04:17:29.536Z,530.00
2023-04-26T04:18:29.535Z,530.00
2023-04-26T04:19:29.577Z,531.00
2023-04-26T04:20:29.564Z,532.00
2023-04-26T04:21:29.569Z,533.00
2023-04-26T04:22:29.593Z,534.00
2023-04-26T04:23:29.562Z,531.00
2023-04-26T04:24:29.569Z,528.00
2023-04-26T04:25:29.582Z,527.00
2023-04-26T04:26:29.553Z,527.00
2023-04-26T04:27:29.549Z,528.00
2023-04-26T04:28:29.548Z,530.00
2023-04-26T04:29:29.556Z,531.00
2023-04-26T04:30:29.554Z,530.00
2023-04-26T04:31:29.593Z,531.00
2023-04-26T04:32:29.562Z,531.00
2023-04-26T04:33:29.597Z,530.00
2023-04-26T04:34:29.547Z,532.00
2023-04-26T04:35:29.541Z,530.00
2023-04-26T04:36:29.526Z,529.00
2023-04-26T04:37:29.571Z,530.00
2023-04-26T04:38:29.605Z,532.00
2023-04-26T04:39:29.636Z,533.00
2023-04-26T04:40:29.684Z,531.00
2023-04-26T04:41:29.709Z,531.00
2023-04-26T04:42:29.725Z,528.00
2023-04-26T04:43:29.782Z,529.00
2023-04-26T04:44:29.817Z,529.00
2023-04-26T04:45:29.833Z,531.00
2023-04-26T04:46:29.891Z,532.00
2023-04-26T04:47:29.907Z,533.00
2023-04-26T04:48:29.938Z,531.00
2023-04-26T04:49:29.992Z,530.00
2023-04-26T04:50:30.043Z,532.00
2023-04-26T04:51:30.092Z,533.00
2023-04-26T04:52:30.138Z,531.00
2023-04-26T04:53:30.178Z,529.00
2023-04-26T04:54:30.209Z,531.00
2023-04-26T04:55:30.256Z,532.00
2023-04-26T04:56:30.277Z,529.00
2023-04-26T04:57:30.330Z,529.00
2023-04-26T04:58:30.372Z,527.00
2023-04-26T04:59:30.442Z,527.00
2023-04-26T05:00:30.463Z,527.00
2023-04-26T05:01:30.516Z,529.00
2023-04-26T05:02:30.567Z,528.00
2023-04-26T05:03:30.660Z,527.00
2023-04-26T05:04:30.736Z,528.00
2023-04-26T05:05:30.660Z,528.00
2023-04-26T05:06:30.687Z,530.00
2023-04-26T05:07:30.739Z,531.00
2023-04-26T05:08:30.787Z,531.00
2023-04-26T05:09:30.818Z,531.00
2023-04-26T05:10:30.853Z,530.00
2023-04-26T05:11:30.885Z,528.00
2023-04-26T05:12:30.947Z,526.00
2023-04-26T05:13:31.011Z,527.00
2023-04-26T05:14:31.059Z,527.00
2023-04-26T05:15:31.164Z,528.00
2023-04-26T05:16:31.085Z,526.00
2023-04-26T05:17:31.121Z,528.00
2023-04-26T05:18:31.239Z,526.00
2023-04-26T05:19:31.180Z,525.00
2023-04-26T05:20:31.214Z,523.00
2023-04-26T05:21:31.178Z,526.00
2023-04-26T05:22:31.140Z,526.00
2023-04-26T05:23:31.142Z,525.00
2023-04-26T05:24:31.114Z,526.00
2023-04-26T05:25:31.145Z,527.00
2023-04-26T05:26:31.082Z,527.00
2023-04-26T05:27:31.082Z,528.00
2023-04-26T05:28:31.049Z,529.00
2023-04-26T05:29:31.136Z,530.00
2023-04-26T05:30:31.054Z,532.00
2023-04-26T05:31:31.090Z,530.00
2023-04-26T05:32:31.136Z,532.00
2023-04-26T05:33:31.163Z,532.00
2023-04-26T05:34:31.201Z,536.00
2023-04-26T05:35:31.238Z,554.00
2023-04-26T05:36:31.303Z,605.00
2023-04-26T05:37:31.307Z,632.00
2023-04-26T05:38:31.336Z,675.00
2023-04-26T05:39:31.384Z,687.00
2023-04-26T05:40:31.408Z,697.00
2023-04-26T05:41:31.440Z,708.00
2023-04-26T05:42:31.484Z,727.00
2023-04-26T05:43:31.483Z,768.00
2023-04-26T05:44:31.516Z,779.00
2023-04-26T05:45:31.606Z,792.00
2023-04-26T05:46:31.661Z,799.00
2023-04-26T05:47:31.587Z,815.00
2023-04-26T05:48:31.612Z,830.00
2023-04-26T05:49:31.635Z,915.00
2023-04-26T05:50:31.653Z,937.00
2023-04-26T05:51:31.735Z,955.00
2023-04-26T05:52:31.637Z,978.00
2023-04-26T05:53:31.636Z,1030.00
2023-04-26T05:54:31.645Z,1059.00
2023-04-26T05:55:31.607Z,1127.00
2023-04-26T05:56:31.645Z,1133.00
2023-04-26T05:57:31.624Z,1133.00
2023-04-26T05:58:31.545Z,1131.00
2023-04-26T05:59:31.543Z,1166.00
2023-04-26T06:00:31.762Z,1190.00
2023-04-26T06:01:31.522Z,1188.00
2023-04-26T06:02:31.515Z,1193.00
2023-04-26T06:03:31.540Z,1199.00
2023-04-26T06:04:31.666Z,1207.00
2023-04-26T06:05:31.550Z,1226.00
2023-04-26T06:06:31.385Z,1252.00
2023-04-26T06:07:31.388Z,1279.00
2023-04-26T06:08:31.368Z,1289.00
2023-04-26T06:09:31.285Z,1303.00
2023-04-26T06:10:31.287Z,1316.00
2023-04-26T06:11:31.259Z,1328.00
2023-04-26T06:12:31.225Z,1336.00
2023-04-26T06:13:31.230Z,1353.00
2023-04-26T06:14:31.256Z,1371.00
2023-04-26T06:15:31.123Z,1383.00
2023-04-26T06:16:31.136Z,1390.00
2023-04-26T06:17:31.106Z,1395.00
2023-04-26T06:18:31.026Z,1419.00
2023-04-26T06:19:31.044Z,1430.00
2023-04-26T06:20:31.001Z,1443.00
2023-04-26T06:21:31.034Z,1536.00
2023-04-26T06:22:31.049Z,1504.00
2023-04-26T06:23:31.113Z,1488.00
2023-04-26T06:24:31.129Z,1483.00
2023-04-26T06:25:31.150Z,1503.00
2023-04-26T06:26:31.184Z,1525.00
2023-04-26T06:27:31.145Z,1543.00
2023-04-26T06:28:31.109Z,1556.00
2023-04-26T06:29:31.077Z,1567.00
2023-04-26T06:30:31.068Z,1577.00
2023-04-26T06:31:31.176Z,1586.00
2023-04-26T06:32:31.013Z,1587.00
2023-04-26T06:33:31.085Z,1599.00
2023-04-26T06:34:30.917Z,1622.00
2023-04-26T06:35:30.929Z,1639.00
2023-04-26T06:36:31.023Z,1645.00
2023-04-26T06:37:31.032Z,1644.00
2023-04-26T06:38:31.063Z,1645.00
2023-04-26T06:39:31.068Z,1655.00
2023-04-26T06:40:31.107Z,1742.00
2023-04-26T06:41:31.134Z,1725.00
2023-04-26T06:42:31.484Z,1719.00
2023-04-26T06:43:31.193Z,1726.00
2023-04-26T06:44:31.271Z,1722.00
2023-04-26T06:45:31.209Z,1702.00
2023-04-26T06:46:31.113Z,1695.00
2023-04-26T06:47:31.111Z,1692.00
2023-04-26T06:48:30.989Z,1687.00
2023-04-26T06:49:31.069Z,1688.00
2023-04-26T06:50:30.966Z,1687.00
2023-04-26T06:51:30.914Z,1673.00
2023-04-26T06:52:30.953Z,1665.00
2023-04-26T06:53:30.991Z,1671.00
2023-04-26T06:54:30.981Z,1640.00
2023-04-26T06:55:31.006Z,1612.00
2023-04-26T06:56:31.060Z,1615.00
2023-04-26T06:57:31.088Z,1619.00
2023-04-26T06:58:31.117Z,1626.00
2023-04-26T06:59:31.170Z,1615.00
2023-04-26T07:00:31.568Z,1610.00
2023-04-26T07:01:31.206Z,1585.00
2023-04-26T07:02:31.349Z,1571.00
2023-04-26T07:03:31.339Z,1579.00
2023-04-26T07:04:31.504Z,1578.00
2023-04-26T07:05:31.508Z,1572.00
2023-04-26T07:06:31.323Z,1568.00
2023-04-26T07:07:31.315Z,1563.00
2023-04-26T07:08:31.300Z,1564.00
2023-04-26T07:09:31.519Z,1559.00
2023-04-26T07:10:31.339Z,1556.00
2023-04-26T07:11:31.321Z,1551.00
2023-04-26T07:12:31.360Z,1556.00
2023-04-26T07:13:31.479Z,1554.00
2023-04-26T07:14:31.360Z,1552.00
2023-04-26T07:15:31.365Z,1552.00
2023-04-26T07:16:31.427Z,1552.00
2023-04-26T07:17:31.433Z,1557.00
2023-04-26T07:18:31.450Z,1560.00
2023-04-26T07:19:31.528Z,1558.00
2023-04-26T07:20:31.530Z,1563.00
2023-04-26T07:21:31.528Z,1560.00
2023-04-26T07:22:31.420Z,1551.00
2023-04-26T07:23:31.412Z,1546.00
2023-04-26T07:24:31.483Z,1547.00
2023-04-26T07:25:31.467Z,1540.00
2023-04-26T07:26:31.501Z,1540.00
2023-04-26T07:27:31.536Z,1548.00
2023-04-26T07:28:31.558Z,1555.00
2023-04-26T07:29:31.592Z,1564.00
2023-04-26T07:30:31.645Z,1566.00
2023-04-26T07:31:31.649Z,1567.00
2023-04-26T07:32:31.738Z,1572.00
2023-04-26T07:33:31.914Z,1596.00
2023-04-26T07:34:31.829Z,1602.00
2023-04-26T07:35:31.823Z,1616.00
2023-04-26T07:36:31.750Z,1626.00
2023-04-26T07:37:31.747Z,1632.00
2023-04-26T07:38:31.871Z,1613.00
2023-04-26T07:39:31.634Z,1327.00
2023-04-26T07:40:31.885Z,1034.00
2023-04-26T07:41:32.518Z,1053.00
2023-04-26T07:42:31.492Z,1043.00
2023-04-26T07:43:31.487Z,1035.00
2023-04-26T07:44:31.520Z,1016.00
2023-04-26T07:45:31.796Z,975.00
2023-04-26T07:46:31.599Z,961.00
2023-04-26T07:47:31.640Z,940.00
2023-04-26T07:48:32.498Z,920.00
2023-04-26T07:49:31.718Z,923.00
2023-04-26T07:50:31.761Z,919.00
2023-04-26T07:51:31.734Z,912.00
2023-04-26T07:52:31.765Z,900.00
2023-04-26T07:53:31.770Z,889.00
2023-04-26T07:54:31.822Z,874.00
2023-04-26T07:55:32.449Z,860.00
2023-04-26T07:56:31.967Z,848.00
2023-04-26T07:57:31.926Z,844.00
2023-04-26T07:58:31.945Z,845.00
2023-04-26T07:59:31.996Z,850.00
2023-04-26T08:00:31.997Z,852.00
2023-04-26T08:01:32.085Z,845.00
2023-04-26T08:02:44.098Z,842.00
2023-04-26T08:03:33.259Z,842.00
2023-04-26T08:04:32.078Z,836.00
2023-04-26T08:05:32.235Z,830.00
2023-04-26T08:06:32.755Z,825.00
2023-04-26T08:07:31.900Z,826.00
2023-04-26T08:08:31.858Z,825.00
2023-04-26T08:09:31.808Z,826.00
2023-04-26T08:10:31.932Z,824.00
2023-04-26T08:11:31.752Z,820.00
2023-04-26T08:12:31.872Z,820.00
2023-04-26T08:13:31.781Z,818.00
2023-04-26T08:14:31.801Z,817.00
2023-04-26T08:15:32.466Z,819.00
2023-04-26T08:16:31.940Z,826.00
2023-04-26T08:17:31.928Z,826.00
2023-04-26T08:18:31.955Z,827.00
2023-04-26T08:19:32.020Z,824.00
2023-04-26T08:20:32.007Z,806.00
2023-04-26T08:21:32.021Z,802.00
2023-04-26T08:22:32.054Z,811.00
2023-04-26T08:23:32.092Z,757.00
2023-04-26T08:24:32.084Z,730.00
2023-04-26T08:25:32.085Z,693.00
2023-04-26T08:26:32.051Z,691.00
2023-04-26T08:27:32.037Z,694.00
2023-04-26T08:28:32.021Z,704.00
2023-04-26T08:29:32.046Z,733.00
2023-04-26T08:30:32.114Z,764.00
2023-04-26T08:31:32.050Z,789.00
2023-04-26T08:32:31.935Z,796.00
2023-04-26T08:33:31.896Z,786.00
2023-04-26T08:34:31.906Z,781.00
2023-04-26T08:35:31.876Z,763.00
2023-04-26T08:36:31.847Z,759.00
2023-04-26T08:37:31.870Z,757.00
2023-04-26T08:38:31.820Z,757.00
2023-04-26T08:39:31.788Z,750.00
2023-04-26T08:40:31.753Z,741.00
2023-04-26T08:41:31.723Z,738.00
2023-04-26T08:42:31.686Z,728.00
2023-04-26T08:43:31.691Z,716.00
2023-04-26T08:44:31.643Z,711.00
2023-04-26T08:45:31.950Z,709.00
2023-04-26T08:46:31.636Z,696.00
2023-04-26T08:47:31.602Z,700.00
2023-04-26T08:48:31.525Z,703.00
2023-04-26T08:49:31.491Z,708.00
2023-04-26T08:50:31.455Z,712.00
2023-04-26T08:51:31.418Z,718.00
2023-04-26T08:52:31.394Z,725.00
2023-04-26T08:53:31.354Z,731.00
2023-04-26T08:54:31.325Z,735.00
2023-04-26T08:55:31.292Z,739.00
2023-04-26T08:56:31.256Z,744.00
2023-04-26T08:57:31.228Z,739.00
2023-04-26T08:58:31.201Z,726.00
2023-04-26T08:59:31.193Z,710.00
2023-04-26T09:00:31.158Z,699.00
2023-04-26T09:01:31.429Z,705.00
2023-04-26T09:02:31.306Z,715.00
2023-04-26T09:03:31.513Z,724.00
2023-04-26T09:04:31.451Z,734.00
2023-04-26T09:05:31.603Z,741.00
2023-04-26T09:06:31.352Z,746.00
2023-04-26T09:07:31.423Z,751.00
2023-04-26T09:08:31.456Z,754.00
2023-04-26T09:09:31.497Z,758.00
2023-04-26T09:10:31.559Z,760.00
2023-04-26T09:11:31.554Z,766.00
2023-04-26T09:12:31.623Z,770.00
2023-04-26T09:13:31.703Z,773.00
2023-04-26T09:14:31.674Z,774.00
2023-04-26T09:15:31.712Z,776.00
2023-04-26T09:16:31.820Z,776.00
2023-04-26T09:17:31.911Z,777.00
2023-04-26T09:18:31.814Z,777.00
2023-04-26T09:19:31.845Z,774.00
2023-04-26T09:20:31.893Z,775.00
2023-04-26T09:21:31.931Z,775.00
2023-04-26T09:22:31.963Z,771.00
2023-04-26T09:23:32.025Z,767.00
2023-04-26T09:24:32.032Z,766.00
2023-04-26T09:25:32.994Z,766.00
2023-04-26T09:26:32.068Z,764.00
2023-04-26T09:27:32.125Z,763.00
2023-04-26T09:28:32.160Z,761.00
2023-04-26T09:29:32.212Z,760.00
2023-04-26T09:30:32.184Z,759.00
2023-04-26T09:31:32.278Z,759.00
2023-04-26T09:32:32.232Z,759.00
2023-04-26T09:33:32.255Z,760.00
2023-04-26T09:34:32.304Z,764.00
2023-04-26T09:35:32.313Z,762.00
2023-04-26T09:36:32.589Z,765.00
2023-04-26T09:37:33.379Z,764.00
2023-04-26T09:38:32.408Z,764.00
2023-04-26T09:39:32.417Z,761.00
2023-04-26T09:40:32.477Z,759.00
2023-04-26T09:41:32.578Z,765.00
2023-04-26T09:42:32.651Z,840.00
2023-04-26T09:43:33.748Z,539.00
2023-04-26T09:44:32.468Z,834.00
2023-04-26T09:45:32.446Z,858.00
2023-04-26T09:46:32.521Z,878.00
2023-04-26T09:47:32.488Z,912.00
2023-04-26T09:48:32.373Z,905.00
2023-04-26T09:49:32.348Z,908.00
2023-04-26T09:50:32.315Z,1000.00
2023-04-26T09:51:32.315Z,1033.00
2023-04-26T09:52:32.317Z,1109.00
2023-04-26T09:53:32.356Z,1122.00
2023-04-26T09:54:32.217Z,1131.00
2023-04-26T09:55:35.505Z,1172.00
2023-04-26T09:56:32.332Z,1184.00
2023-04-26T09:57:32.184Z,1181.00
2023-04-26T09:58:32.187Z,1220.00
2023-04-26T09:59:32.155Z,1208.00
2023-04-26T10:00:32.227Z,1207.00
2023-04-26T10:01:32.454Z,1216.00
2023-04-26T10:02:32.209Z,1231.00
2023-04-26T10:03:32.191Z,1237.00
2023-04-26T10:04:32.013Z,1246.00
2023-04-26T10:05:33.831Z,1256.00
2023-04-26T10:06:31.896Z,1263.00
2023-04-26T10:07:31.869Z,1278.00
2023-04-26T10:08:31.807Z,1280.00
2023-04-26T10:09:31.844Z,1279.00
2023-04-26T10:10:31.722Z,1293.00
2023-04-26T10:11:32.562Z,1310.00
2023-04-26T10:12:31.651Z,1307.00
2023-04-26T10:13:31.594Z,1306.00
2023-04-26T10:14:31.568Z,1316.00
2023-04-26T10:15:31.620Z,1323.00
2023-04-26T10:16:31.527Z,1331.00
2023-04-26T10:17:31.594Z,1329.00
2023-04-26T10:18:31.508Z,1335.00
2023-04-26T10:19:31.522Z,1338.00
2023-04-26T10:20:31.708Z,1346.00
2023-04-26T10:21:31.586Z,1351.00
2023-04-26T10:22:31.541Z,1357.00
2023-04-26T10:23:31.616Z,1356.00
2023-04-26T10:24:31.568Z,1360.00
2023-04-26T10:25:31.610Z,1365.00
2023-04-26T10:26:31.624Z,1367.00
2023-04-26T10:27:31.597Z,1380.00
2023-04-26T10:28:31.750Z,1387.00
2023-04-26T10:29:31.530Z,1403.00
2023-04-26T10:30:31.575Z,1419.00
2023-04-26T10:31:31.525Z,1439.00
2023-04-26T10:32:31.468Z,1450.00
2023-04-26T10:33:31.611Z,1416.00
2023-04-26T10:34:31.406Z,1438.00
2023-04-26T10:35:31.419Z,1450.00
2023-04-26T10:36:32.621Z,1443.00
2023-04-26T10:37:31.450Z,1189.00
2023-04-26T10:38:31.332Z,1202.00
2023-04-26T10:39:31.311Z,1010.00
2023-04-26T10:40:31.326Z,998.00
2023-04-26T10:41:31.241Z,931.00
2023-04-26T10:42:31.214Z,912.00
2023-04-26T10:43:31.204Z,914.00
2023-04-26T10:44:31.261Z,926.00
2023-04-26T10:45:31.455Z,948.00
2023-04-26T10:46:31.381Z,965.00
2023-04-26T10:47:31.187Z,971.00
2023-04-26T10:48:31.154Z,985.00
2023-04-26T10:49:31.113Z,991.00
2023-04-26T10:50:31.118Z,1007.00
2023-04-26T10:51:31.118Z,1018.00
2023-04-26T10:52:31.094Z,1024.00
2023-04-26T10:53:31.096Z,1023.00
2023-04-26T10:54:31.090Z,1025.00
2023-04-26T10:55:31.086Z,1021.00
2023-04-26T10:56:31.108Z,1019.00
2023-04-26T10:57:32.043Z,1017.00
2023-04-26T10:58:31.110Z,1027.00
2023-04-26T10:59:39.957Z,1026.00
2023-04-26T11:00:32.993Z,1020.00
2023-04-26T11:01:31.103Z,1009.00
2023-04-26T11:02:32.054Z,988.00
2023-04-26T11:03:33.196Z,976.00
2023-04-26T11:04:31.100Z,973.00
2023-04-26T11:05:31.013Z,973.00
2023-04-26T11:06:31.030Z,971.00
2023-04-26T11:07:31.028Z,975.00
2023-04-26T11:08:30.997Z,984.00
2023-04-26T11:09:31.004Z,1019.00
2023-04-26T11:10:30.935Z,1008.00
2023-04-26T11:11:30.884Z,1021.00
2023-04-26T11:12:30.883Z,1032.00
2023-04-26T11:13:30.901Z,1039.00
2023-04-26T11:14:30.791Z,1049.00
2023-04-26T11:15:30.754Z,1060.00
2023-04-26T11:16:30.782Z,1067.00
2023-04-26T11:17:30.744Z,1079.00
2023-04-26T11:18:30.736Z,1092.00
2023-04-26T11:19:30.739Z,1101.00
2023-04-26T11:20:30.623Z,1111.00
2023-04-26T11:21:31.035Z,1118.00
2023-04-26T11:22:30.544Z,1127.00
2023-04-26T11:23:30.512Z,1146.00
2023-04-26T11:24:30.514Z,1146.00
2023-04-26T11:25:30.611Z,1165.00
2023-04-26T11:26:30.429Z,1202.00
2023-04-26T11:27:30.403Z,1195.00
2023-04-26T11:28:31.655Z,1186.00
2023-04-26T11:29:30.742Z,1177.00
2023-04-26T11:30:30.304Z,1174.00
2023-04-26T11:31:30.326Z,1164.00
2023-04-26T11:32:30.266Z,1162.00
2023-04-26T11:33:30.229Z,1153.00
2023-04-26T11:34:30.199Z,1144.00
2023-04-26T11:35:30.164Z,1135.00
2023-04-26T11:36:30.519Z,1130.00
2023-04-26T11:37:30.096Z,1122.00
2023-04-26T11:38:30.063Z,1115.00
2023-04-26T11:39:30.057Z,1111.00
2023-04-26T11:40:30.055Z,1108.00
2023-04-26T11:41:29.990Z,1102.00
2023-04-26T11:42:29.946Z,1094.00
2023-04-26T11:43:29.964Z,1087.00
2023-04-26T11:44:29.904Z,1081.00
2023-04-26T11:45:29.865Z,1070.00
2023-04-26T11:46:29.877Z,1061.00
2023-04-26T11:47:29.835Z,1052.00
2023-04-26T11:48:29.781Z,1048.00
2023-04-26T11:49:29.811Z,1044.00
2023-04-26T11:50:29.723Z,1034.00
2023-04-26T11:51:30.633Z,1029.00
2023-04-26T11:52:29.699Z,1022.00
2023-04-26T11:53:29.649Z,1015.00
2023-04-26T11:54:29.686Z,1010.00
2023-04-26T11:55:29.603Z,1005.00
2023-04-26T11:56:29.565Z,1000.00
2023-04-26T11:57:29.772Z,992.00
2023-04-26T11:58:29.517Z,990.00
2023-04-26T11:59:29.482Z,987.00
2023-04-26T12:00:29.564Z,981.00
2023-04-26T12:01:29.445Z,976.00
2023-04-26T12:02:29.607Z,970.00
2023-04-26T12:03:29.497Z,966.00
2023-04-26T12:04:30.167Z,965.00
2023-04-26T12:05:29.316Z,961.00
2023-04-26T12:06:29.295Z,956.00
2023-04-26T12:07:29.252Z,953.00
2023-04-26T12:08:29.219Z,950.00
2023-04-26T12:09:29.182Z,951.00
2023-04-26T12:10:29.177Z,947.00
2023-04-26T12:11:29.134Z,943.00
2023-04-26T12:12:29.133Z,937.00
2023-04-26T12:13:29.070Z,931.00
2023-04-26T12:14:29.049Z,934.00
2023-04-26T12:15:29.120Z,934.00
2023-04-26T12:16:29.042Z,934.00
2023-04-26T12:17:29.180Z,931.00
2023-04-26T12:18:28.950Z,925.00
2023-04-26T12:19:28.931Z,927.00
2023-04-26T12:20:28.908Z,927.00
2023-04-26T12:21:30.828Z,922.00
2023-04-26T12:22:28.987Z,920.00